Time;durP1;ratioP1;P1;durP2;ratioP2;P2;SDS_P1;SDS_P2;PMS_P1;PMS_P2;Temp;Humidity;BMP_temperature;BMP_pressure;BME280_temperature;BME280_humidity;BME280_pressure;Samples;Min_cycle;Max_cycle;Signal;HPM_P1;HPM_P2
2024/01/19 00:01:15;;;;;;;8.00;4.17;;;;;;;;;;5260181;28;20048;-75
2024/01/19 00:03:47;;;;;;;9.67;4.00;;;;;;;;;;5260233;28;20579;-75
2024/01/19 00:06:18;;;;;;;7.17;3.83;;;;;;;;;;5260742;28;20364;-75
2024/01/19 00:08:51;;;;;;;10.43;4.33;;;;;;;;;;5259868;28;20025;-75
2024/01/19 00:11:23;;;;;;;7.13;3.63;;;;;;;;;;5260541;28;20018;-75
2024/01/19 00:13:54;;;;;;;11.60;4.77;;;;;;;;;;5261220;28;20097;-75
2024/01/19 00:16:26;;;;;;;8.23;4.50;;;;;;;;;;5259647;28;20036;-75
2024/01/19 00:18:57;;;;;;;8.37;4.53;;;;;;;;;;5260586;28;20349;-75
2024/01/19 00:21:29;;;;;;;7.20;3.50;;;;;;;;;;5260833;28;20127;-75
2024/01/19 00:24:00;;;;;;;9.60;3.87;;;;;;;;;;5259994;28;20025;-75
2024/01/19 00:26:31;;;;;;;8.67;3.97;;;;;;;;;;5260754;28;20100;-75
2024/01/19 00:29:02;;;;;;;7.23;4.23;;;;;;;;;;5260524;28;20147;-75
2024/01/19 00:31:34;;;;;;;10.03;4.30;;;;;;;;;;5259538;28;20024;-74
2024/01/19 00:34:05;;;;;;;10.53;4.13;;;;;;;;;;5260745;28;20100;-75
2024/01/19 00:36:36;;;;;;;7.93;3.80;;;;;;;;;;5259545;28;20013;-75
2024/01/19 00:39:07;;;;;;;9.73;4.33;;;;;;;;;;5260327;28;20029;-75
2024/01/19 00:41:38;;;;;;;7.07;3.63;;;;;;;;;;5260335;28;20446;-75
2024/01/19 00:44:10;;;;;;;7.57;4.43;;;;;;;;;;5259435;28;20036;-75
2024/01/19 00:46:41;;;;;;;7.20;4.50;;;;;;;;;;5260254;28;20033;-75
2024/01/19 00:49:12;;;;;;;5.50;3.47;;;;;;;;;;5260320;28;20414;-75
2024/01/19 00:51:43;;;;;;;7.87;4.13;;;;;;;;;;5259481;28;20049;-74
2024/01/19 00:54:14;;;;;;;9.57;4.50;;;;;;;;;;5263381;28;20009;-75
2024/01/19 00:56:45;;;;;;;9.40;5.03;;;;;;;;;;5264085;28;20024;-75
2024/01/19 00:59:17;;;;;;;10.17;4.53;;;;;;;;;;5263376;28;20494;-75
2024/01/19 01:01:48;;;;;;;5.70;3.10;;;;;;;;;;5264054;28;20037;-75
2024/01/19 01:04:19;;;;;;;8.93;4.30;;;;;;;;;;5264104;28;20013;-75
2024/01/19 01:06:50;;;;;;;9.53;4.77;;;;;;;;;;5263206;28;20020;-75
2024/01/19 01:09:21;;;;;;;8.83;4.13;;;;;;;;;;5263827;28;20112;-75
2024/01/19 01:11:53;;;;;;;7.10;3.47;;;;;;;;;;5263614;28;20032;-75
2024/01/19 01:14:24;;;;;;;5.90;3.70;;;;;;;;;;5263661;28;20108;-76
2024/01/19 01:16:55;;;;;;;5.13;3.03;;;;;;;;;;5263958;28;20025;-75
2024/01/19 01:19:26;;;;;;;5.32;3.13;;;;;;;;;;5262584;28;20460;-75
2024/01/19 01:21:57;;;;;;;9.00;3.50;;;;;;;;;;5264038;28;20456;-76
2024/01/19 01:24:29;;;;;;;8.43;3.30;;;;;;;;;;5263817;28;20021;-75
2024/01/19 01:27:00;;;;;;;7.10;3.30;;;;;;;;;;5262793;28;20075;-75
2024/01/19 01:29:31;;;;;;;7.20;3.40;;;;;;;;;;5263629;28;20071;-75
2024/01/19 01:32:02;;;;;;;9.77;3.57;;;;;;;;;;5263365;28;20055;-76
2024/01/19 01:34:34;;;;;;;8.97;3.60;;;;;;;;;;5262936;28;20017;-75
2024/01/19 01:37:05;;;;;;;6.77;3.50;;;;;;;;;;5263560;28;20070;-75
2024/01/19 01:39:36;;;;;;;5.27;3.10;;;;;;;;;;5263479;28;20013;-75
2024/01/19 01:42:07;;;;;;;6.27;3.00;;;;;;;;;;5262559;28;20380;-75
2024/01/19 01:44:39;;;;;;;8.83;3.30;;;;;;;;;;5263211;28;20100;-75
2024/01/19 01:47:10;;;;;;;7.50;3.53;;;;;;;;;;5262485;28;20104;-75
2024/01/19 01:49:42;;;;;;;5.83;3.00;;;;;;;;;;5263072;28;20104;-75
2024/01/19 01:52:13;;;;;;;5.77;3.20;;;;;;;;;;5262856;28;20033;-75
2024/01/19 01:54:44;;;;;;;5.80;3.07;;;;;;;;;;5262247;28;20379;-75
2024/01/19 01:57:17;;;;;;;5.30;2.97;;;;;;;;;;5262856;28;20059;-75
2024/01/19 01:59:48;;;;;;;5.23;3.00;;;;;;;;;;5263030;28;20481;-75
2024/01/19 02:02:19;;;;;;;7.30;3.20;;;;;;;;;;5262044;28;20040;-75
2024/01/19 02:04:50;;;;;;;7.00;3.13;;;;;;;;;;5262485;28;20070;-75
2024/01/19 02:07:22;;;;;;;5.63;3.30;;;;;;;;;;5262340;28;20063;-75
2024/01/19 02:09:53;;;;;;;5.13;2.87;;;;;;;;;;5262474;28;20021;-75
2024/01/19 02:12:24;;;;;;;5.97;3.10;;;;;;;;;;5262714;28;20017;-75
2024/01/19 02:14:57;;;;;;;5.87;2.40;;;;;;;;;;5262272;28;20017;-75
2024/01/19 02:17:28;;;;;;;5.43;3.00;;;;;;;;;;5262489;28;20488;-75
2024/01/19 02:19:59;;;;;;;4.57;2.57;;;;;;;;;;5262504;28;20032;-75
2024/01/19 02:22:31;;;;;;;5.67;2.60;;;;;;;;;;5261852;28;20115;-75
2024/01/19 02:25:02;;;;;;;4.93;2.27;;;;;;;;;;5262539;28;20143;-75
2024/01/19 02:27:34;;;;;;;5.37;2.40;;;;;;;;;;5262454;28;20017;-75
2024/01/19 02:30:06;;;;;;;4.90;2.03;;;;;;;;;;5261524;28;20017;-75
2024/01/19 02:32:38;;;;;;;4.07;1.70;;;;;;;;;;5262526;28;20380;-75
2024/01/19 02:35:09;;;;;;;3.90;1.50;;;;;;;;;;5262468;28;20013;-76
2024/01/19 02:37:40;;;;;;;3.57;1.57;;;;;;;;;;5261237;28;20071;-76
2024/01/19 02:40:12;;;;;;;4.13;1.47;;;;;;;;;;5262231;28;20021;-75
2024/01/19 02:42:43;;;;;;;2.50;1.00;;;;;;;;;;5262011;28;20021;-75
2024/01/19 02:45:15;;;;;;;3.77;1.13;;;;;;;;;;5261176;28;20014;-75
2024/01/19 02:47:46;;;;;;;4.50;1.47;;;;;;;;;;5261875;28;20475;-75
2024/01/19 02:50:17;;;;;;;2.93;0.77;;;;;;;;;;5261046;28;20033;-75
2024/01/19 02:52:48;;;;;;;4.37;1.03;;;;;;;;;;5261687;28;20502;-75
2024/01/19 02:55:20;;;;;;;3.30;0.80;;;;;;;;;;5261868;28;20028;-75
2024/01/19 02:57:51;;;;;;;2.77;0.70;;;;;;;;;;5261355;28;20112;-75
2024/01/19 03:00:22;;;;;;;4.90;0.87;;;;;;;;;;5261548;28;20020;-75
2024/01/19 03:02:53;;;;;;;5.40;0.90;;;;;;;;;;5261979;28;20036;-75
2024/01/19 03:05:24;;;;;;;4.10;0.90;;;;;;;;;;5260440;28;20107;-75
2024/01/19 03:07:55;;;;;;;3.40;1.17;;;;;;;;;;5261618;28;20415;-75
2024/01/19 03:10:27;;;;;;;4.33;1.47;;;;;;;;;;5261510;28;20032;-74
2024/01/19 03:12:58;;;;;;;4.37;1.27;;;;;;;;;;5260885;28;20017;-75
2024/01/19 03:15:30;;;;;;;2.83;1.33;;;;;;;;;;5260838;28;20021;-75
2024/01/19 03:18:01;;;;;;;5.35;1.65;;;;;;;;;;5261415;28;20074;-75
2024/01/19 03:20:32;;;;;;;3.33;1.23;;;;;;;;;;5260630;28;20032;-75
2024/01/19 03:23:05;;;;;;;4.13;1.23;;;;;;;;;;5261485;28;20510;-75
2024/01/19 03:25:36;;;;;;;7.40;2.10;;;;;;;;;;5260497;28;20066;-75
2024/01/19 03:28:08;;;;;;;3.70;1.33;;;;;;;;;;5261368;28;20515;-75
2024/01/19 03:30:39;;;;;;;5.40;2.20;;;;;;;;;;5261261;28;20475;-75
2024/01/19 03:33:10;;;;;;;3.70;2.37;;;;;;;;;;5260668;28;20025;-75
2024/01/19 03:35:41;;;;;;;4.73;2.30;;;;;;;;;;5261350;28;20031;-75
2024/01/19 03:38:12;;;;;;;3.90;2.30;;;;;;;;;;5261175;28;20028;-75
2024/01/19 03:40:44;;;;;;;3.97;2.50;;;;;;;;;;5260303;28;20092;-75
2024/01/19 03:43:15;;;;;;;6.57;2.70;;;;;;;;;;5260802;28;20617;-75
2024/01/19 03:45:46;;;;;;;4.60;2.53;;;;;;;;;;5261134;28;20027;-75
2024/01/19 03:48:18;;;;;;;3.63;2.60;;;;;;;;;;5260419;28;20029;-75
2024/01/19 03:50:49;;;;;;;6.40;2.40;;;;;;;;;;5260681;28;20020;-75
2024/01/19 03:53:20;;;;;;;6.37;2.60;;;;;;;;;;5260703;28;20368;-75
2024/01/19 03:55:51;;;;;;;5.23;3.03;;;;;;;;;;5260223;28;20345;-75
2024/01/19 03:58:22;;;;;;;5.90;2.73;;;;;;;;;;5260717;28;20021;-75
2024/01/19 04:00:54;;;;;;;6.53;3.07;;;;;;;;;;5260398;28;20032;-75
2024/01/19 04:03:25;;;;;;;4.73;2.20;;;;;;;;;;5260355;28;20057;-75
2024/01/19 04:05:56;;;;;;;5.17;3.10;;;;;;;;;;5260473;28;20028;-75
2024/01/19 04:08:27;;;;;;;8.30;3.40;;;;;;;;;;5259593;28;20411;-75
2024/01/19 04:10:58;;;;;;;5.37;3.40;;;;;;;;;;5260471;28;20053;-75
2024/01/19 04:13:30;;;;;;;5.77;3.33;;;;;;;;;;5260410;28;20534;-75
2024/01/19 04:16:01;;;;;;;7.33;3.43;;;;;;;;;;5259419;28;20035;-75
2024/01/19 04:18:32;;;;;;;5.10;2.83;;;;;;;;;;5260369;28;20424;-75
2024/01/19 04:21:03;;;;;;;4.73;3.07;;;;;;;;;;5260529;28;20028;-75
2024/01/19 04:23:35;;;;;;;7.00;3.93;;;;;;;;;;5259874;28;20068;-75
2024/01/19 04:26:07;;;;;;;5.87;3.40;;;;;;;;;;5260530;28;20017;-75
2024/01/19 04:28:39;;;;;;;7.77;3.60;;;;;;;;;;5263896;28;20028;-75
2024/01/19 04:31:10;;;;;;;7.40;4.43;;;;;;;;;;5264863;28;20041;-75
2024/01/19 04:33:41;;;;;;;6.50;4.03;;;;;;;;;;5265001;28;20033;-75
2024/01/19 04:36:12;;;;;;;7.63;4.30;;;;;;;;;;5264059;28;20047;-75
2024/01/19 04:38:44;;;;;;;5.77;3.70;;;;;;;;;;5264433;28;20028;-75
2024/01/19 04:41:15;;;;;;;10.40;3.33;;;;;;;;;;5264296;28;20025;-75
2024/01/19 04:43:47;;;;;;;6.50;4.00;;;;;;;;;;5263738;28;20672;-75
2024/01/19 04:46:19;;;;;;;6.47;4.07;;;;;;;;;;5264784;28;20017;-75
2024/01/19 04:48:50;;;;;;;6.03;4.00;;;;;;;;;;5264810;28;20025;-75
2024/01/19 04:51:21;;;;;;;7.93;4.23;;;;;;;;;;5263209;28;20478;-76
2024/01/19 04:53:52;;;;;;;9.23;4.67;;;;;;;;;;5264599;28;20535;-75
2024/01/19 04:56:24;;;;;;;7.87;4.40;;;;;;;;;;5263866;28;20023;-75
2024/01/19 04:58:55;;;;;;;5.97;3.57;;;;;;;;;;5264145;28;20025;-75
2024/01/19 05:01:26;;;;;;;7.40;4.37;;;;;;;;;;5264087;28;20052;-75
2024/01/19 05:03:57;;;;;;;8.70;4.57;;;;;;;;;;5263670;28;20035;-75
2024/01/19 05:06:28;;;;;;;7.20;4.47;;;;;;;;;;5263918;28;20042;-75
2024/01/19 05:09:00;;;;;;;8.33;4.53;;;;;;;;;;5264222;28;20029;-75
2024/01/19 05:11:31;;;;;;;7.37;4.63;;;;;;;;;;5263141;28;20031;-75
2024/01/19 05:14:03;;;;;;;9.00;4.60;;;;;;;;;;5263959;28;20407;-75
2024/01/19 05:16:34;;;;;;;7.37;5.20;;;;;;;;;;5263897;28;20472;-75
2024/01/19 05:19:05;;;;;;;8.07;4.43;;;;;;;;;;5263071;28;20028;-75
2024/01/19 05:21:37;;;;;;;12.00;4.60;;;;;;;;;;5263913;28;20016;-74
2024/01/19 05:24:08;;;;;;;8.77;4.83;;;;;;;;;;5263753;28;20029;-74
2024/01/19 05:26:39;;;;;;;8.07;4.73;;;;;;;;;;5263028;28;20128;-75
2024/01/19 05:29:10;;;;;;;7.93;5.10;;;;;;;;;;5263688;28;20017;-74
2024/01/19 05:31:41;;;;;;;6.67;4.87;;;;;;;;;;5263399;28;20017;-74
2024/01/19 05:34:13;;;;;;;8.53;5.30;;;;;;;;;;5262903;28;20602;-75
2024/01/19 05:36:44;;;;;;;11.27;4.67;;;;;;;;;;5263459;28;20028;-75
2024/01/19 05:39:15;;;;;;;6.40;4.53;;;;;;;;;;5262039;28;20044;-75
2024/01/19 05:41:46;;;;;;;7.43;4.90;;;;;;;;;;5263537;28;20036;-75
2024/01/19 05:44:17;;;;;;;8.40;5.00;;;;;;;;;;5263002;28;20033;-75
2024/01/19 05:46:49;;;;;;;8.20;5.00;;;;;;;;;;5263097;28;20451;-75
2024/01/19 05:49:20;;;;;;;5.37;3.70;;;;;;;;;;5263503;28;20078;-75
2024/01/19 05:51:51;;;;;;;6.70;4.30;;;;;;;;;;5263198;28;20049;-75
2024/01/19 05:54:22;;;;;;;7.63;5.00;;;;;;;;;;5261952;28;20070;-75
2024/01/19 05:56:53;;;;;;;9.70;4.67;;;;;;;;;;5263610;28;20017;-75
2024/01/19 05:59:25;;;;;;;6.47;4.63;;;;;;;;;;5263023;28;20017;-75
2024/01/19 06:01:56;;;;;;;6.47;4.37;;;;;;;;;;5262169;28;20040;-74
2024/01/19 06:04:27;;;;;;;7.33;4.77;;;;;;;;;;5262881;28;20464;-75
2024/01/19 06:07:01;;;;;;;5.97;3.73;;;;;;;;;;5262811;28;20025;-76
2024/01/19 06:09:32;;;;;;;7.20;3.93;;;;;;;;;;5262676;28;20020;-75
2024/01/19 06:12:05;;;;;;;8.70;4.97;;;;;;;;;;5262913;28;20471;-76
2024/01/19 06:14:36;;;;;;;6.53;4.40;;;;;;;;;;5262061;28;20020;-76
2024/01/19 06:17:11;;;;;;;6.13;4.60;;;;;;;;;;5262846;28;20033;-75
2024/01/19 06:19:42;;;;;;;6.60;4.20;;;;;;;;;;5262860;28;20023;-75
2024/01/19 06:22:13;;;;;;;6.87;4.27;;;;;;;;;;5261633;28;20040;-76
2024/01/19 06:24:44;;;;;;;9.73;4.60;;;;;;;;;;5262535;28;20021;-76
2024/01/19 06:27:15;;;;;;;7.73;4.50;;;;;;;;;;5262648;28;20564;-76
2024/01/19 06:29:47;;;;;;;6.83;3.87;;;;;;;;;;5261797;28;20039;-77
2024/01/19 06:32:18;;;;;;;6.27;4.37;;;;;;;;;;5262546;28;20025;-76
2024/01/19 06:34:49;;;;;;;6.37;4.33;;;;;;;;;;5262512;28;20032;-76
2024/01/19 06:37:21;;;;;;;6.97;4.27;;;;;;;;;;5261477;28;20009;-76
2024/01/19 06:39:52;;;;;;;9.83;4.37;;;;;;;;;;5262606;28;20021;-77
2024/01/19 06:42:24;;;;;;;9.93;4.30;;;;;;;;;;5260928;28;20025;-76
2024/01/19 06:44:55;;;;;;;6.80;4.37;;;;;;;;;;5262526;28;20096;-75
2024/01/19 06:47:26;;;;;;;7.63;3.90;;;;;;;;;;5262050;28;20094;-75
2024/01/19 06:49:57;;;;;;;6.83;4.53;;;;;;;;;;5261761;28;20021;-76
2024/01/19 06:52:29;;;;;;;6.80;4.20;;;;;;;;;;5261826;28;20099;-75
2024/01/19 06:55:00;;;;;;;6.73;4.30;;;;;;;;;;5261699;28;20029;-75
2024/01/19 06:57:31;;;;;;;9.23;3.97;;;;;;;;;;5261247;28;20067;-75
2024/01/19 07:00:03;;;;;;;6.60;4.07;;;;;;;;;;5261949;28;20025;-75
2024/01/19 07:02:35;;;;;;;6.00;3.50;;;;;;;;;;5261753;28;20450;-76
2024/01/19 07:05:06;;;;;;;7.30;4.17;;;;;;;;;;5260914;28;20104;-75
2024/01/19 07:07:37;;;;;;;5.83;3.57;;;;;;;;;;5261684;28;20036;-76
2024/01/19 07:10:09;;;;;;;7.00;4.23;;;;;;;;;;5261879;28;20040;-76
2024/01/19 07:12:40;;;;;;;3.73;3.27;;;;;;;;;;5260799;28;20091;-75
2024/01/19 07:15:11;;;;;;;8.63;4.20;;;;;;;;;;5261442;28;20017;-74
2024/01/19 07:17:42;;;;;;;6.50;4.20;;;;;;;;;;5260241;28;20020;-76
2024/01/19 07:20:14;;;;;;;7.30;4.33;;;;;;;;;;5261323;28;20054;-78
2024/01/19 07:22:45;;;;;;;8.83;4.20;;;;;;;;;;5261029;28;20041;-75
2024/01/19 07:25:16;;;;;;;7.67;4.30;;;;;;;;;;5260681;28;20486;-77
2024/01/19 07:27:47;;;;;;;5.80;4.17;;;;;;;;;;5260985;28;20055;-75
2024/01/19 07:30:18;;;;;;;7.47;3.63;;;;;;;;;;5261041;28;20371;-75
2024/01/19 07:32:50;;;;;;;9.03;4.53;;;;;;;;;;5260462;28;20030;-75
2024/01/19 07:35:21;;;;;;;8.43;4.07;;;;;;;;;;5260891;28;20021;-74
2024/01/19 07:37:52;;;;;;;4.67;4.20;;;;;;;;;;5261330;28;20028;-74
2024/01/19 07:40:23;;;;;;;5.80;3.67;;;;;;;;;;5259856;28;20025;-75
2024/01/19 07:42:54;;;;;;;4.90;3.33;;;;;;;;;;5261210;28;20033;-75
2024/01/19 07:45:26;;;;;;;8.80;4.83;;;;;;;;;;5260698;28;20013;-73
2024/01/19 07:47:57;;;;;;;6.00;3.27;;;;;;;;;;5260323;28;20049;-74
2024/01/19 07:50:28;;;;;;;6.83;3.97;;;;;;;;;;5260785;28;20029;-73
2024/01/19 07:52:59;;;;;;;11.03;5.43;;;;;;;;;;5259843;28;20059;-74
2024/01/19 07:55:30;;;;;;;6.60;3.80;;;;;;;;;;5260799;28;20464;-73
2024/01/19 07:58:02;;;;;;;8.23;4.27;;;;;;;;;;5260891;28;20419;-74
2024/01/19 08:00:33;;;;;;;7.20;4.00;;;;;;;;;;5260031;28;20178;-73
2024/01/19 08:03:05;;;;;;;7.30;4.37;;;;;;;;;;5260049;28;20087;-73
2024/01/19 08:05:36;;;;;;;10.07;5.17;;;;;;;;;;5260687;28;20021;-73
2024/01/19 08:08:07;;;;;;;9.30;4.13;;;;;;;;;;5259823;28;20100;-73
2024/01/19 08:10:38;;;;;;;9.70;5.37;;;;;;;;;;5260589;28;20017;-73
2024/01/19 08:13:09;;;;;;;7.57;4.33;;;;;;;;;;5260781;28;20495;-73
2024/01/19 08:15:40;;;;;;;10.13;4.57;;;;;;;;;;5259821;28;20044;-73
2024/01/19 08:18:12;;;;;;;10.70;4.87;;;;;;;;;;5260388;28;20033;-73
2024/01/19 08:20:43;;;;;;;5.67;3.70;;;;;;;;;;5259983;28;20386;-73
2024/01/19 08:23:14;;;;;;;6.40;3.67;;;;;;;;;;5260667;28;20033;-73
2024/01/19 08:25:45;;;;;;;8.10;3.57;;;;;;;;;;5260532;28;20104;-74
2024/01/19 08:28:16;;;;;;;6.40;3.73;;;;;;;;;;5259733;28;20029;-73
2024/01/19 08:30:48;;;;;;;6.67;3.60;;;;;;;;;;5260463;28;20028;-73
2024/01/19 08:33:19;;;;;;;8.43;3.87;;;;;;;;;;5260785;28;20068;-73
2024/01/19 08:35:50;;;;;;;7.60;4.07;;;;;;;;;;5259629;28;20057;-72
2024/01/19 08:38:21;;;;;;;6.53;3.57;;;;;;;;;;5260046;28;20384;-73
2024/01/19 08:40:53;;;;;;;6.10;3.23;;;;;;;;;;5260704;28;20025;-74
2024/01/19 08:43:24;;;;;;;6.33;4.00;;;;;;;;;;5259111;28;20056;-74
2024/01/19 08:45:56;;;;;;;5.33;2.90;;;;;;;;;;5260821;28;20026;-74
2024/01/19 08:48:27;;;;;;;5.00;3.27;;;;;;;;;;5260168;28;20076;-74
2024/01/19 08:50:59;;;;;;;6.70;3.10;;;;;;;;;;5259585;28;20017;-74
2024/01/19 08:53:30;;;;;;;8.10;3.27;;;;;;;;;;5260287;28;20045;-73
2024/01/19 08:56:01;;;;;;;7.70;3.00;;;;;;;;;;5259330;28;20025;-73
2024/01/19 08:58:32;;;;;;;4.30;2.80;;;;;;;;;;5260382;28;20023;-74
2024/01/19 09:01:04;;;;;;;9.00;3.03;;;;;;;;;;5260217;28;20021;-74
2024/01/19 09:03:35;;;;;;;4.60;2.90;;;;;;;;;;5259258;28;20039;-74
2024/01/19 09:06:06;;;;;;;5.50;2.73;;;;;;;;;;5260113;28;20090;-73
2024/01/19 09:08:39;;;;;;;5.83;2.90;;;;;;;;;;5260364;28;20021;-73
2024/01/19 09:11:11;;;;;;;4.93;2.60;;;;;;;;;;5259523;28;20538;-73
2024/01/19 09:13:42;;;;;;;5.93;2.53;;;;;;;;;;5260903;28;20017;-74
2024/01/19 09:16:13;;;;;;;4.00;2.37;;;;;;;;;;5263941;28;20021;-73
2024/01/19 09:18:44;;;;;;;5.30;2.43;;;;;;;;;;5262954;28;20021;-74
2024/01/19 09:21:17;;;;;;;7.47;2.43;;;;;;;;;;5263870;28;20044;-73
2024/01/19 09:23:48;;;;;;;5.50;2.33;;;;;;;;;;5263828;28;20486;-73
2024/01/19 09:26:20;;;;;;;3.30;2.00;;;;;;;;;;5262995;28;20020;-73
2024/01/19 09:28:51;;;;;;;5.67;2.77;;;;;;;;;;5263567;28;20016;-73
2024/01/19 09:31:22;;;;;;;6.17;2.30;;;;;;;;;;5262474;28;20494;-74
2024/01/19 09:33:54;;;;;;;4.17;2.10;;;;;;;;;;5263963;28;20028;-73
2024/01/19 09:36:25;;;;;;;4.40;1.70;;;;;;;;;;5263234;28;20108;-74
2024/01/19 09:38:56;;;;;;;5.20;2.00;;;;;;;;;;5262906;28;20083;-74
2024/01/19 09:41:31;;;;;;;5.20;2.60;;;;;;;;;;5263098;28;20057;-73
2024/01/19 09:44:06;;;;;;;4.47;2.10;;;;;;;;;;5263503;28;20025;-73
2024/01/19 09:46:52;;;;;;;4.70;2.37;;;;;;;;;;5262672;28;20043;-73
2024/01/19 09:49:42;;;;;;;4.63;2.17;;;;;;;;;;5262425;28;20067;-73
2024/01/19 09:52:16;;;;;;;5.23;3.37;;;;;;;;;;5261951;28;20063;-75
2024/01/19 09:54:48;;;;;;;6.60;2.73;;;;;;;;;;5263248;28;20032;-74
2024/01/19 09:57:19;;;;;;;4.17;2.67;;;;;;;;;;5262918;28;20100;-74
2024/01/19 09:59:52;;;;;;;6.00;3.17;;;;;;;;;;5262230;28;20013;-74
2024/01/19 10:02:25;;;;;;;6.60;3.70;;;;;;;;;;5262400;28;20035;-74
2024/01/19 10:04:59;;;;;;;8.63;3.73;;;;;;;;;;5263035;28;20338;-74
2024/01/19 10:07:31;;;;;;;7.23;3.03;;;;;;;;;;5262055;28;20025;-74
2024/01/19 10:10:02;;;;;;;4.27;2.87;;;;;;;;;;5262991;28;20024;-74
2024/01/19 10:12:34;;;;;;;5.03;2.67;;;;;;;;;;5262799;28;20021;-74
2024/01/19 10:15:09;;;;;;;8.17;3.70;;;;;;;;;;5261914;28;20013;-74
2024/01/19 10:17:42;;;;;;;4.57;3.23;;;;;;;;;;5262751;28;20967;-74
2024/01/19 10:20:14;;;;;;;6.87;3.60;;;;;;;;;;5262278;28;20066;-74
2024/01/19 10:22:45;;;;;;;8.97;3.63;;;;;;;;;;5262596;28;20021;-74
2024/01/19 10:25:16;;;;;;;6.00;3.40;;;;;;;;;;5262138;28;20024;-74
2024/01/19 10:27:54;;;;;;;5.27;3.20;;;;;;;;;;5261763;28;20108;-74
2024/01/19 10:30:27;;;;;;;5.60;3.47;;;;;;;;;;5261929;28;20063;-74
2024/01/19 10:33:05;;;;;;;4.77;3.30;;;;;;;;;;5262515;28;20384;-74
2024/01/19 10:35:37;;;;;;;9.55;3.40;;;;;;;;;;5261535;28;20132;-74
2024/01/19 10:38:10;;;;;;;5.33;2.90;;;;;;;;;;5262059;28;20111;-73
2024/01/19 10:40:41;;;;;;;6.27;3.30;;;;;;;;;;5262417;28;20503;-73
2024/01/19 10:43:21;;;;;;;7.63;3.50;;;;;;;;;;5261342;28;20060;-73
2024/01/19 10:45:52;;;;;;;6.90;3.03;;;;;;;;;;5262352;28;20099;-74
2024/01/19 10:48:26;;;;;;;4.24;2.72;;;;;;;;;;5260929;28;20112;-74
2024/01/19 10:51:01;;;;;;;4.90;2.80;;;;;;;;;;5261607;28;20016;-73
2024/01/19 10:53:32;;;;;;;7.17;4.30;;;;;;;;;;5261920;28;20041;-73
2024/01/19 10:56:04;;;;;;;5.70;3.20;;;;;;;;;;5261166;28;20036;-73
2024/01/19 10:58:35;;;;;;;6.57;4.00;;;;;;;;;;5261754;28;20504;-73
2024/01/19 11:01:11;;;;;;;6.83;3.87;;;;;;;;;;5261603;28;20104;-74
2024/01/19 11:03:43;;;;;;;6.33;3.57;;;;;;;;;;5260842;28;20031;-73
2024/01/19 11:06:14;;;;;;;8.40;5.07;;;;;;;;;;5261759;28;20021;-73
2024/01/19 11:08:45;;;;;;;8.80;4.60;;;;;;;;;;5261801;28;20028;-73
2024/01/19 11:11:20;;;;;;;9.03;4.57;;;;;;;;;;5260768;28;20021;-73
2024/01/19 11:13:53;;;;;;;7.13;5.07;;;;;;;;;;5261863;28;20171;-73
2024/01/19 11:16:25;;;;;;;8.43;5.57;;;;;;;;;;5261257;28;20459;-74
2024/01/19 11:18:56;;;;;;;7.67;5.37;;;;;;;;;;5260900;28;20143;-73
2024/01/19 11:21:28;;;;;;;7.20;5.10;;;;;;;;;;5261103;28;20072;-73
2024/01/19 11:23:59;;;;;;;12.30;5.70;;;;;;;;;;5260557;28;20163;-73
2024/01/19 11:26:43;;;;;;;9.67;5.50;;;;;;;;;;5261462;28;20353;-73
2024/01/19 11:29:20;;;;;;;8.47;5.40;;;;;;;;;;5261204;28;20041;-73
2024/01/19 11:31:51;;;;;;;10.47;5.80;;;;;;;;;;5260522;28;20013;-73
2024/01/19 11:34:39;;;;;;;12.27;6.00;;;;;;;;;;5260791;28;20021;-73
2024/01/19 11:37:28;;;;;;;8.50;5.43;;;;;;;;;;5260480;28;20017;-74
2024/01/19 11:40:00;;;;;;;9.43;5.47;;;;;;;;;;5260279;28;20022;-74
2024/01/19 11:42:34;;;;;;;7.87;4.77;;;;;;;;;;5260789;28;20384;-74
2024/01/19 11:45:05;;;;;;;8.90;5.23;;;;;;;;;;5260141;28;20025;-73
2024/01/19 11:47:38;;;;;;;10.90;5.77;;;;;;;;;;5260760;28;20013;-72
2024/01/19 11:50:10;;;;;;;10.33;5.67;;;;;;;;;;5260711;28;20032;-71
2024/01/19 11:52:42;;;;;;;12.43;6.43;;;;;;;;;;5259690;28;20087;-72
2024/01/19 11:55:25;;;;;;;8.40;5.37;;;;;;;;;;5261130;28;20021;-72
2024/01/19 11:57:56;;;;;;;8.20;5.63;;;;;;;;;;5260779;28;20032;-72
2024/01/19 12:00:29;;;;;;;7.80;5.00;;;;;;;;;;5259959;28;20460;-72
2024/01/19 12:03:00;;;;;;;8.67;5.33;;;;;;;;;;5260533;28;20126;-71
2024/01/19 12:05:31;;;;;;;7.50;5.43;;;;;;;;;;5260732;28;20444;-71
2024/01/19 12:08:04;;;;;;;11.40;6.73;;;;;;;;;;5259850;28;20025;-72
2024/01/19 12:10:35;;;;;;;6.80;5.00;;;;;;;;;;5260808;28;20024;-72
2024/01/19 12:13:06;;;;;;;10.40;5.00;;;;;;;;;;5260167;28;20383;-72
2024/01/19 12:15:39;;;;;;;7.93;6.00;;;;;;;;;;5260639;28;20017;-71
2024/01/19 12:18:10;;;;;;;9.87;5.50;;;;;;;;;;5260737;28;20041;-71
2024/01/19 12:20:43;;;;;;;7.43;5.27;;;;;;;;;;5259594;28;20048;-72
2024/01/19 12:23:14;;;;;;;8.57;5.13;;;;;;;;;;5260482;28;20112;-74
2024/01/19 12:25:46;;;;;;;7.67;5.10;;;;;;;;;;5260504;28;20104;-72
2024/01/19 12:28:17;;;;;;;8.40;4.47;;;;;;;;;;5259846;28;20530;-72
2024/01/19 12:30:49;;;;;;;8.93;5.50;;;;;;;;;;5260675;28;20024;-72
2024/01/19 12:33:31;;;;;;;7.17;5.10;;;;;;;;;;5259810;28;20091;-72
2024/01/19 12:36:02;;;;;;;12.20;6.70;;;;;;;;;;5257667;28;20071;-74
2024/01/19 12:38:34;;;;;;;8.37;4.87;;;;;;;;;;5258531;28;20017;-72
2024/01/19 12:41:06;;;;;;;10.87;5.27;;;;;;;;;;5258591;28;20029;-70
2024/01/19 12:43:37;;;;;;;8.30;5.23;;;;;;;;;;5252941;28;20024;-71
2024/01/19 12:46:08;;;;;;;9.27;6.13;;;;;;;;;;5258540;28;20427;-70
2024/01/19 12:48:40;;;;;;;9.27;5.27;;;;;;;;;;5260504;28;20056;-69
2024/01/19 12:51:11;;;;;;;13.13;6.00;;;;;;;;;;5263007;28;20095;-71
2024/01/19 12:53:52;;;;;;;11.87;5.73;;;;;;;;;;5263455;28;20031;-72
2024/01/19 12:56:28;;;;;;;10.13;5.63;;;;;;;;;;5262768;28;20546;-71
2024/01/19 12:59:09;;;;;;;9.63;6.03;;;;;;;;;;5262835;28;20028;-71
2024/01/19 13:01:44;;;;;;;9.20;5.97;;;;;;;;;;5262813;28;20417;-72
2024/01/19 13:04:16;;;;;;;10.93;6.50;;;;;;;;;;5263304;28;20460;-72
2024/01/19 13:06:49;;;;;;;12.27;6.37;;;;;;;;;;5264035;28;20017;-71
2024/01/19 13:09:21;;;;;;;11.90;6.30;;;;;;;;;;5262337;28;20131;-71
2024/01/19 13:11:53;;;;;;;7.30;6.07;;;;;;;;;;5264147;28;20033;-72
2024/01/19 13:14:24;;;;;;;9.70;5.87;;;;;;;;;;5267424;28;20507;-71
2024/01/19 13:16:56;;;;;;;10.07;6.23;;;;;;;;;;5263515;28;20527;-71
2024/01/19 13:19:27;;;;;;;8.33;5.50;;;;;;;;;;5274832;28;20027;-70
2024/01/19 13:22:03;;;;;;;9.80;6.43;;;;;;;;;;5266365;28;20591;-72
2024/01/19 13:24:34;;;;;;;11.10;5.67;;;;;;;;;;5261926;28;20029;-72
2024/01/19 13:27:06;;;;;;;10.57;6.37;;;;;;;;;;5260296;28;20024;-73
2024/01/19 13:29:37;;;;;;;12.70;6.83;;;;;;;;;;5251691;28;20025;-72
2024/01/19 13:32:08;;;;;;;8.67;5.80;;;;;;;;;;5280905;28;20039;-73
2024/01/19 13:34:39;;;;;;;9.63;5.67;;;;;;;;;;5267945;28;20468;-73
2024/01/19 13:37:11;;;;;;;8.97;5.83;;;;;;;;;;5261939;28;20040;-73
2024/01/19 13:39:42;;;;;;;9.43;6.30;;;;;;;;;;5262570;28;20036;-72
2024/01/19 13:42:13;;;;;;;12.60;6.40;;;;;;;;;;5262869;28;20079;-72
2024/01/19 13:44:44;;;;;;;12.80;6.70;;;;;;;;;;5262342;28;20104;-70
2024/01/19 13:47:15;;;;;;;10.40;7.00;;;;;;;;;;5267258;28;20032;-72
2024/01/19 13:49:46;;;;;;;8.93;6.37;;;;;;;;;;5269083;28;20471;-71
2024/01/19 13:52:18;;;;;;;10.37;6.23;;;;;;;;;;5261501;28;20052;-72
2024/01/19 13:54:49;;;;;;;9.95;6.38;;;;;;;;;;5262498;28;20027;-70
2024/01/19 13:57:20;;;;;;;10.15;5.72;;;;;;;;;;5262320;28;20032;-71
2024/01/19 13:59:51;;;;;;;10.53;6.13;;;;;;;;;;5260645;28;20025;-70
2024/01/19 14:02:23;;;;;;;9.93;6.03;;;;;;;;;;5261932;28;20025;-71
2024/01/19 14:04:55;;;;;;;10.60;6.43;;;;;;;;;;5263138;28;20025;-71
2024/01/19 14:07:26;;;;;;;10.50;6.55;;;;;;;;;;5261913;28;20422;-71
2024/01/19 14:09:57;;;;;;;11.30;7.70;;;;;;;;;;5262962;28;20017;-72
2024/01/19 14:12:28;;;;;;;11.13;6.47;;;;;;;;;;5261688;28;20028;-72
2024/01/19 14:14:59;;;;;;;11.40;7.00;;;;;;;;;;5262779;28;20460;-72
2024/01/19 14:17:31;;;;;;;11.30;7.30;;;;;;;;;;5263025;28;20025;-72
2024/01/19 14:20:02;;;;;;;12.23;7.43;;;;;;;;;;5261679;28;20023;-72
2024/01/19 14:22:33;;;;;;;10.87;7.23;;;;;;;;;;5261798;28;20072;-73
2024/01/19 14:25:07;;;;;;;10.70;7.90;;;;;;;;;;5262359;28;20369;-73
2024/01/19 14:27:39;;;;;;;11.05;7.78;;;;;;;;;;5261837;28;20472;-72
2024/01/19 14:30:10;;;;;;;11.47;8.33;;;;;;;;;;5262472;28;20031;-73
2024/01/19 14:32:41;;;;;;;13.40;9.40;;;;;;;;;;5262542;28;20115;-73
2024/01/19 14:35:13;;;;;;;12.50;8.65;;;;;;;;;;5261364;28;20028;-72
2024/01/19 14:37:46;;;;;;;14.97;9.40;;;;;;;;;;5262060;28;20017;-73
2024/01/19 14:40:17;;;;;;;13.37;8.10;;;;;;;;;;5262456;28;20416;-72
2024/01/19 14:42:48;;;;;;;10.53;7.77;;;;;;;;;;5261329;28;20087;-72
2024/01/19 14:45:20;;;;;;;15.33;8.70;;;;;;;;;;5262132;28;20025;-73
2024/01/19 14:47:51;;;;;;;10.77;8.10;;;;;;;;;;5261490;28;20024;-72
2024/01/19 14:50:23;;;;;;;11.33;7.90;;;;;;;;;;5261788;28;20368;-73
2024/01/19 14:53:00;;;;;;;13.87;8.23;;;;;;;;;;5262006;28;20053;-73
2024/01/19 14:55:31;;;;;;;13.93;9.47;;;;;;;;;;5261244;28;20096;-74
2024/01/19 14:58:02;;;;;;;10.13;7.63;;;;;;;;;;5261850;28;20099;-74
2024/01/19 15:00:34;;;;;;;11.13;7.63;;;;;;;;;;5262079;28;20017;-74
2024/01/19 15:03:06;;;;;;;13.67;8.87;;;;;;;;;;5261155;28;20056;-73
2024/01/19 15:05:38;;;;;;;11.10;7.60;;;;;;;;;;5261836;28;20053;-74
2024/01/19 15:08:09;;;;;;;13.40;8.80;;;;;;;;;;5261423;28;20104;-73